sensor_id;sensor_type;location;lat;lon;timestamp;P1;durP1;ratioP1;P2;durP2;ratioP2
71183;SDS011;58887;51.980;4.464;2024-03-29T00:01:10;1.87;;;1.34;;
71183;SDS011;58887;51.980;4.464;2024-03-29T00:03:36;2.00;;;1.44;;
71183;SDS011;58887;51.980;4.464;2024-03-29T00:06:01;1.98;;;1.43;;
71183;SDS011;58887;51.980;4.464;2024-03-29T00:08:27;2.19;;;1.56;;
71183;SDS011;58887;51.980;4.464;2024-03-29T00:10:53;2.09;;;1.50;;
71183;SDS011;58887;51.980;4.464;2024-03-29T00:13:18;1.74;;;1.27;;
71183;SDS011;58887;51.980;4.464;2024-03-29T00:15:45;2.22;;;1.57;;
71183;SDS011;58887;51.980;4.464;2024-03-29T00:18:11;2.36;;;1.63;;
71183;SDS011;58887;51.980;4.464;2024-03-29T00:20:36;2.05;;;1.42;;
71183;SDS011;58887;51.980;4.464;2024-03-29T00:23:02;2.05;;;1.44;;
71183;SDS011;58887;51.980;4.464;2024-03-29T00:25:27;2.12;;;1.49;;
71183;SDS011;58887;51.980;4.464;2024-03-29T00:27:52;1.97;;;1.37;;
71183;SDS011;58887;51.980;4.464;2024-03-29T00:30:18;2.23;;;1.56;;
71183;SDS011;58887;51.980;4.464;2024-03-29T00:32:43;2.13;;;1.49;;
71183;SDS011;58887;51.980;4.464;2024-03-29T00:35:09;2.09;;;1.47;;
71183;SDS011;58887;51.980;4.464;2024-03-29T00:37:34;2.73;;;1.88;;
71183;SDS011;58887;51.980;4.464;2024-03-29T00:40:00;2.10;;;1.46;;
71183;SDS011;58887;51.980;4.464;2024-03-29T00:42:26;2.33;;;1.59;;
71183;SDS011;58887;51.980;4.464;2024-03-29T00:44:51;2.27;;;1.54;;
71183;SDS011;58887;51.980;4.464;2024-03-29T00:47:17;2.92;;;1.94;;
71183;SDS011;58887;51.980;4.464;2024-03-29T00:49:43;2.74;;;1.82;;
71183;SDS011;58887;51.980;4.464;2024-03-29T00:52:08;2.96;;;1.97;;
71183;SDS011;58887;51.980;4.464;2024-03-29T00:54:33;2.67;;;1.77;;
71183;SDS011;58887;51.980;4.464;2024-03-29T00:56:59;2.90;;;1.94;;
71183;SDS011;58887;51.980;4.464;2024-03-29T00:59:24;2.04;;;1.38;;
71183;SDS011;58887;51.980;4.464;2024-03-29T01:01:50;2.25;;;1.54;;
71183;SDS011;58887;51.980;4.464;2024-03-29T01:04:16;2.37;;;1.65;;
71183;SDS011;58887;51.980;4.464;2024-03-29T01:06:42;2.04;;;1.45;;
71183;SDS011;58887;51.980;4.464;2024-03-29T01:09:08;2.12;;;1.51;;
71183;SDS011;58887;51.980;4.464;2024-03-29T01:11:36;2.35;;;1.68;;
71183;SDS011;58887;51.980;4.464;2024-03-29T01:14:03;2.36;;;1.66;;
71183;SDS011;58887;51.980;4.464;2024-03-29T01:16:29;2.37;;;1.63;;
71183;SDS011;58887;51.980;4.464;2024-03-29T01:18:55;2.36;;;1.61;;
71183;SDS011;58887;51.980;4.464;2024-03-29T01:21:22;2.69;;;1.81;;
71183;SDS011;58887;51.980;4.464;2024-03-29T01:23:47;2.65;;;1.79;;
71183;SDS011;58887;51.980;4.464;2024-03-29T01:26:13;2.83;;;1.91;;
71183;SDS011;58887;51.980;4.464;2024-03-29T01:28:39;2.83;;;1.92;;
71183;SDS011;58887;51.980;4.464;2024-03-29T01:31:05;2.72;;;1.84;;
71183;SDS011;58887;51.980;4.464;2024-03-29T01:33:31;2.52;;;1.74;;
71183;SDS011;58887;51.980;4.464;2024-03-29T01:36:03;2.55;;;1.75;;
71183;SDS011;58887;51.980;4.464;2024-03-29T01:38:29;2.62;;;1.78;;
71183;SDS011;58887;51.980;4.464;2024-03-29T01:40:55;2.55;;;1.75;;
71183;SDS011;58887;51.980;4.464;2024-03-29T01:43:20;1.97;;;1.36;;
71183;SDS011;58887;51.980;4.464;2024-03-29T01:45:47;2.71;;;1.89;;
71183;SDS011;58887;51.980;4.464;2024-03-29T01:48:17;2.14;;;1.52;;
71183;SDS011;58887;51.980;4.464;2024-03-29T01:50:43;2.03;;;1.47;;
71183;SDS011;58887;51.980;4.464;2024-03-29T01:53:10;1.74;;;1.25;;
71183;SDS011;58887;51.980;4.464;2024-03-29T01:55:37;2.16;;;1.56;;
71183;SDS011;58887;51.980;4.464;2024-03-29T01:58:03;2.02;;;1.44;;
71183;SDS011;58887;51.980;4.464;2024-03-29T02:00:33;2.56;;;1.82;;
71183;SDS011;58887;51.980;4.464;2024-03-29T02:03:01;2.50;;;1.80;;
71183;SDS011;58887;51.980;4.464;2024-03-29T02:05:29;1.79;;;1.28;;
71183;SDS011;58887;51.980;4.464;2024-03-29T02:07:55;2.19;;;1.53;;
71183;SDS011;58887;51.980;4.464;2024-03-29T02:10:22;2.08;;;1.46;;
71183;SDS011;58887;51.980;4.464;2024-03-29T02:12:48;2.31;;;1.64;;
71183;SDS011;58887;51.980;4.464;2024-03-29T02:15:14;2.77;;;1.95;;
71183;SDS011;58887;51.980;4.464;2024-03-29T02:17:41;2.11;;;1.45;;
71183;SDS011;58887;51.980;4.464;2024-03-29T02:20:07;2.15;;;1.47;;
71183;SDS011;58887;51.980;4.464;2024-03-29T02:22:34;2.06;;;1.41;;
71183;SDS011;58887;51.980;4.464;2024-03-29T02:25:08;2.21;;;1.52;;
71183;SDS011;58887;51.980;4.464;2024-03-29T02:27:34;3.00;;;2.10;;
71183;SDS011;58887;51.980;4.464;2024-03-29T02:30:00;2.35;;;1.65;;
71183;SDS011;58887;51.980;4.464;2024-03-29T02:32:25;1.99;;;1.41;;
71183;SDS011;58887;51.980;4.464;2024-03-29T02:34:52;2.22;;;1.57;;
71183;SDS011;58887;51.980;4.464;2024-03-29T02:37:18;1.98;;;1.41;;
71183;SDS011;58887;51.980;4.464;2024-03-29T02:39:44;1.95;;;1.41;;
71183;SDS011;58887;51.980;4.464;2024-03-29T02:42:09;1.77;;;1.30;;
71183;SDS011;58887;51.980;4.464;2024-03-29T02:44:35;2.13;;;1.57;;
71183;SDS011;58887;51.980;4.464;2024-03-29T02:47:00;1.69;;;1.26;;
71183;SDS011;58887;51.980;4.464;2024-03-29T02:49:26;1.56;;;1.17;;
71183;SDS011;58887;51.980;4.464;2024-03-29T02:51:51;1.78;;;1.29;;
71183;SDS011;58887;51.980;4.464;2024-03-29T02:54:18;1.99;;;1.43;;
71183;SDS011;58887;51.980;4.464;2024-03-29T02:56:44;2.45;;;1.74;;
71183;SDS011;58887;51.980;4.464;2024-03-29T02:59:09;2.45;;;1.74;;
71183;SDS011;58887;51.980;4.464;2024-03-29T03:01:35;2.91;;;2.08;;
71183;SDS011;58887;51.980;4.464;2024-03-29T03:04:00;2.29;;;1.68;;
71183;SDS011;58887;51.980;4.464;2024-03-29T03:06:25;2.17;;;1.63;;
71183;SDS011;58887;51.980;4.464;2024-03-29T03:08:51;1.77;;;1.33;;
71183;SDS011;58887;51.980;4.464;2024-03-29T03:11:35;1.74;;;1.29;;
71183;SDS011;58887;51.980;4.464;2024-03-29T03:14:00;2.03;;;1.50;;
71183;SDS011;58887;51.980;4.464;2024-03-29T03:16:26;1.98;;;1.45;;
71183;SDS011;58887;51.980;4.464;2024-03-29T03:18:51;1.33;;;0.99;;
71183;SDS011;58887;51.980;4.464;2024-03-29T03:21:17;1.62;;;1.20;;
71183;SDS011;58887;51.980;4.464;2024-03-29T03:23:42;1.85;;;1.36;;
71183;SDS011;58887;51.980;4.464;2024-03-29T03:26:08;1.61;;;1.19;;
71183;SDS011;58887;51.980;4.464;2024-03-29T03:28:34;1.42;;;1.07;;
71183;SDS011;58887;51.980;4.464;2024-03-29T03:31:00;1.55;;;1.18;;
71183;SDS011;58887;51.980;4.464;2024-03-29T03:33:26;1.23;;;0.93;;
71183;SDS011;58887;51.980;4.464;2024-03-29T03:35:51;1.45;;;1.10;;
71183;SDS011;58887;51.980;4.464;2024-03-29T03:38:17;1.49;;;1.13;;
71183;SDS011;58887;51.980;4.464;2024-03-29T03:40:42;1.17;;;0.90;;
71183;SDS011;58887;51.980;4.464;2024-03-29T03:43:08;1.09;;;0.84;;
71183;SDS011;58887;51.980;4.464;2024-03-29T03:45:34;1.25;;;0.96;;
71183;SDS011;58887;51.980;4.464;2024-03-29T03:48:02;1.09;;;0.85;;
71183;SDS011;58887;51.980;4.464;2024-03-29T03:50:28;1.47;;;1.14;;
71183;SDS011;58887;51.980;4.464;2024-03-29T03:52:54;1.13;;;0.88;;
71183;SDS011;58887;51.980;4.464;2024-03-29T03:55:19;0.93;;;0.74;;
71183;SDS011;58887;51.980;4.464;2024-03-29T03:57:45;1.01;;;0.82;;
71183;SDS011;58887;51.980;4.464;2024-03-29T04:00:10;1.06;;;0.86;;
71183;SDS011;58887;51.980;4.464;2024-03-29T04:02:36;1.03;;;0.83;;
71183;SDS011;58887;51.980;4.464;2024-03-29T04:05:02;0.90;;;0.73;;
71183;SDS011;58887;51.980;4.464;2024-03-29T04:07:27;1.06;;;0.85;;
71183;SDS011;58887;51.980;4.464;2024-03-29T04:09:53;0.90;;;0.73;;
71183;SDS011;58887;51.980;4.464;2024-03-29T04:12:18;0.83;;;0.68;;
71183;SDS011;58887;51.980;4.464;2024-03-29T04:14:44;0.97;;;0.79;;
71183;SDS011;58887;51.980;4.464;2024-03-29T04:17:09;0.83;;;0.68;;
71183;SDS011;58887;51.980;4.464;2024-03-29T04:19:35;0.84;;;0.68;;
71183;SDS011;58887;51.980;4.464;2024-03-29T04:22:01;0.59;;;0.48;;
71183;SDS011;58887;51.980;4.464;2024-03-29T04:24:27;0.94;;;0.76;;
71183;SDS011;58887;51.980;4.464;2024-03-29T04:26:53;0.50;;;0.41;;
71183;SDS011;58887;51.980;4.464;2024-03-29T04:29:19;0.83;;;0.68;;
71183;SDS011;58887;51.980;4.464;2024-03-29T04:31:47;0.87;;;0.70;;
71183;SDS011;58887;51.980;4.464;2024-03-29T04:34:13;0.45;;;0.37;;
71183;SDS011;58887;51.980;4.464;2024-03-29T04:36:38;0.65;;;0.53;;
71183;SDS011;58887;51.980;4.464;2024-03-29T04:39:04;0.62;;;0.50;;
71183;SDS011;58887;51.980;4.464;2024-03-29T04:41:29;0.80;;;0.65;;
71183;SDS011;58887;51.980;4.464;2024-03-29T04:43:59;0.85;;;0.69;;
71183;SDS011;58887;51.980;4.464;2024-03-29T04:46:26;0.87;;;0.71;;
71183;SDS011;58887;51.980;4.464;2024-03-29T04:48:55;1.03;;;0.84;;
71183;SDS011;58887;51.980;4.464;2024-03-29T04:51:20;0.99;;;0.82;;
71183;SDS011;58887;51.980;4.464;2024-03-29T04:53:46;0.79;;;0.67;;
71183;SDS011;58887;51.980;4.464;2024-03-29T04:56:11;0.93;;;0.78;;
71183;SDS011;58887;51.980;4.464;2024-03-29T04:58:37;0.68;;;0.58;;
71183;SDS011;58887;51.980;4.464;2024-03-29T05:01:02;0.89;;;0.76;;
71183;SDS011;58887;51.980;4.464;2024-03-29T05:03:28;1.02;;;0.87;;
71183;SDS011;58887;51.980;4.464;2024-03-29T05:05:54;0.80;;;0.69;;
71183;SDS011;58887;51.980;4.464;2024-03-29T05:08:19;0.87;;;0.76;;
71183;SDS011;58887;51.980;4.464;2024-03-29T05:10:48;0.74;;;0.65;;
71183;SDS011;58887;51.980;4.464;2024-03-29T05:13:15;0.54;;;0.48;;
71183;SDS011;58887;51.980;4.464;2024-03-29T05:15:41;0.77;;;0.69;;
71183;SDS011;58887;51.980;4.464;2024-03-29T05:18:07;1.00;;;0.89;;
71183;SDS011;58887;51.980;4.464;2024-03-29T05:20:33;0.77;;;0.69;;
71183;SDS011;58887;51.980;4.464;2024-03-29T05:22:58;0.82;;;0.74;;
71183;SDS011;58887;51.980;4.464;2024-03-29T05:25:24;0.68;;;0.61;;
71183;SDS011;58887;51.980;4.464;2024-03-29T05:27:50;0.66;;;0.59;;
71183;SDS011;58887;51.980;4.464;2024-03-29T05:30:15;0.89;;;0.79;;
71183;SDS011;58887;51.980;4.464;2024-03-29T05:32:41;0.83;;;0.74;;
71183;SDS011;58887;51.980;4.464;2024-03-29T05:35:07;0.72;;;0.65;;
71183;SDS011;58887;51.980;4.464;2024-03-29T05:37:34;0.87;;;0.78;;
71183;SDS011;58887;51.980;4.464;2024-03-29T05:40:01;1.00;;;0.90;;
71183;SDS011;58887;51.980;4.464;2024-03-29T05:42:30;0.69;;;0.61;;
71183;SDS011;58887;51.980;4.464;2024-03-29T05:44:58;0.60;;;0.54;;
71183;SDS011;58887;51.980;4.464;2024-03-29T05:47:23;0.67;;;0.60;;
71183;SDS011;58887;51.980;4.464;2024-03-29T05:49:49;0.66;;;0.60;;
71183;SDS011;58887;51.980;4.464;2024-03-29T05:52:15;0.47;;;0.43;;
71183;SDS011;58887;51.980;4.464;2024-03-29T05:54:44;0.91;;;0.80;;
71183;SDS011;58887;51.980;4.464;2024-03-29T05:57:11;0.75;;;0.65;;
71183;SDS011;58887;51.980;4.464;2024-03-29T05:59:36;0.83;;;0.71;;
71183;SDS011;58887;51.980;4.464;2024-03-29T06:02:03;0.92;;;0.78;;
71183;SDS011;58887;51.980;4.464;2024-03-29T06:04:29;0.64;;;0.55;;
71183;SDS011;58887;51.980;4.464;2024-03-29T06:07:00;0.80;;;0.69;;
71183;SDS011;58887;51.980;4.464;2024-03-29T06:09:29;0.89;;;0.78;;
71183;SDS011;58887;51.980;4.464;2024-03-29T06:11:55;0.89;;;0.77;;
71183;SDS011;58887;51.980;4.464;2024-03-29T06:14:25;0.81;;;0.70;;
71183;SDS011;58887;51.980;4.464;2024-03-29T06:17:17;0.73;;;0.63;;
71183;SDS011;58887;51.980;4.464;2024-03-29T06:19:49;0.62;;;0.54;;
71183;SDS011;58887;51.980;4.464;2024-03-29T06:22:23;0.72;;;0.62;;
71183;SDS011;58887;51.980;4.464;2024-03-29T06:24:49;0.78;;;0.65;;
71183;SDS011;58887;51.980;4.464;2024-03-29T06:27:19;0.77;;;0.65;;
71183;SDS011;58887;51.980;4.464;2024-03-29T06:29:48;0.77;;;0.66;;
71183;SDS011;58887;51.980;4.464;2024-03-29T06:32:17;0.83;;;0.73;;
71183;SDS011;58887;51.980;4.464;2024-03-29T06:34:46;1.07;;;0.94;;
71183;SDS011;58887;51.980;4.464;2024-03-29T06:37:11;1.05;;;0.92;;
71183;SDS011;58887;51.980;4.464;2024-03-29T06:39:37;0.82;;;0.72;;
71183;SDS011;58887;51.980;4.464;2024-03-29T06:42:03;0.86;;;0.77;;
71183;SDS011;58887;51.980;4.464;2024-03-29T06:44:29;0.88;;;0.77;;
71183;SDS011;58887;51.980;4.464;2024-03-29T06:46:54;0.95;;;0.83;;
71183;SDS011;58887;51.980;4.464;2024-03-29T06:49:20;0.88;;;0.77;;
71183;SDS011;58887;51.980;4.464;2024-03-29T06:51:45;1.00;;;0.87;;
71183;SDS011;58887;51.980;4.464;2024-03-29T06:54:11;0.90;;;0.78;;
71183;SDS011;58887;51.980;4.464;2024-03-29T06:56:37;1.22;;;1.07;;
71183;SDS011;58887;51.980;4.464;2024-03-29T06:59:04;1.27;;;1.10;;
71183;SDS011;58887;51.980;4.464;2024-03-29T07:01:30;0.94;;;0.81;;
71183;SDS011;58887;51.980;4.464;2024-03-29T07:03:55;1.13;;;1.00;;
71183;SDS011;58887;51.980;4.464;2024-03-29T07:06:21;0.97;;;0.86;;
71183;SDS011;58887;51.980;4.464;2024-03-29T07:08:47;0.91;;;0.81;;
71183;SDS011;58887;51.980;4.464;2024-03-29T07:11:13;0.79;;;0.73;;
71183;SDS011;58887;51.980;4.464;2024-03-29T07:13:39;1.10;;;1.03;;
71183;SDS011;58887;51.980;4.464;2024-03-29T07:16:04;0.85;;;0.81;;
71183;SDS011;58887;51.980;4.464;2024-03-29T07:18:32;1.06;;;1.01;;
71183;SDS011;58887;51.980;4.464;2024-03-29T07:20:58;1.22;;;1.16;;
71183;SDS011;58887;51.980;4.464;2024-03-29T07:23:23;1.00;;;0.97;;
71183;SDS011;58887;51.980;4.464;2024-03-29T07:25:59;1.06;;;1.04;;
71183;SDS011;58887;51.980;4.464;2024-03-29T07:28:28;0.85;;;0.84;;
71183;SDS011;58887;51.980;4.464;2024-03-29T07:30:54;0.92;;;0.91;;
71183;SDS011;58887;51.980;4.464;2024-03-29T07:33:20;0.92;;;0.91;;
71183;SDS011;58887;51.980;4.464;2024-03-29T07:35:51;1.04;;;1.03;;
71183;SDS011;58887;51.980;4.464;2024-03-29T07:38:17;1.07;;;1.06;;
71183;SDS011;58887;51.980;4.464;2024-03-29T07:40:45;1.11;;;1.11;;
71183;SDS011;58887;51.980;4.464;2024-03-29T07:43:12;1.29;;;1.29;;
71183;SDS011;58887;51.980;4.464;2024-03-29T07:45:41;1.33;;;1.33;;
71183;SDS011;58887;51.980;4.464;2024-03-29T07:48:16;1.41;;;1.41;;
71183;SDS011;58887;51.980;4.464;2024-03-29T07:50:43;1.46;;;1.46;;
71183;SDS011;58887;51.980;4.464;2024-03-29T07:53:10;1.45;;;1.45;;
71183;SDS011;58887;51.980;4.464;2024-03-29T07:55:37;1.74;;;1.74;;
71183;SDS011;58887;51.980;4.464;2024-03-29T07:58:04;1.79;;;1.79;;
71183;SDS011;58887;51.980;4.464;2024-03-29T08:00:33;1.73;;;1.73;;
71183;SDS011;58887;51.980;4.464;2024-03-29T08:02:59;2.27;;;2.27;;
71183;SDS011;58887;51.980;4.464;2024-03-29T08:05:26;1.86;;;1.86;;
71183;SDS011;58887;51.980;4.464;2024-03-29T08:07:54;2.10;;;2.10;;
71183;SDS011;58887;51.980;4.464;2024-03-29T08:10:20;1.99;;;1.99;;
71183;SDS011;58887;51.980;4.464;2024-03-29T08:12:45;2.28;;;2.28;;
71183;SDS011;58887;51.980;4.464;2024-03-29T08:15:11;2.23;;;2.22;;
71183;SDS011;58887;51.980;4.464;2024-03-29T08:17:36;2.31;;;2.30;;
71183;SDS011;58887;51.980;4.464;2024-03-29T08:20:02;2.29;;;2.29;;
71183;SDS011;58887;51.980;4.464;2024-03-29T08:22:28;2.17;;;2.17;;
71183;SDS011;58887;51.980;4.464;2024-03-29T08:24:54;2.07;;;2.07;;
71183;SDS011;58887;51.980;4.464;2024-03-29T08:27:20;2.21;;;2.21;;
71183;SDS011;58887;51.980;4.464;2024-03-29T08:29:46;2.13;;;2.13;;
71183;SDS011;58887;51.980;4.464;2024-03-29T08:32:14;2.23;;;2.23;;
71183;SDS011;58887;51.980;4.464;2024-03-29T08:34:40;1.96;;;1.96;;
71183;SDS011;58887;51.980;4.464;2024-03-29T08:37:05;1.92;;;1.92;;
71183;SDS011;58887;51.980;4.464;2024-03-29T08:39:31;2.15;;;2.15;;
71183;SDS011;58887;51.980;4.464;2024-03-29T08:42:00;2.03;;;2.03;;
71183;SDS011;58887;51.980;4.464;2024-03-29T08:44:30;1.73;;;1.73;;
71183;SDS011;58887;51.980;4.464;2024-03-29T08:46:59;1.31;;;1.31;;
71183;SDS011;58887;51.980;4.464;2024-03-29T08:49:28;1.24;;;1.24;;
71183;SDS011;58887;51.980;4.464;2024-03-29T08:51:54;1.29;;;1.28;;
71183;SDS011;58887;51.980;4.464;2024-03-29T08:54:20;1.03;;;1.03;;
71183;SDS011;58887;51.980;4.464;2024-03-29T08:56:45;1.13;;;1.13;;
71183;SDS011;58887;51.980;4.464;2024-03-29T08:59:12;1.07;;;1.06;;
71183;SDS011;58887;51.980;4.464;2024-03-29T09:01:41;1.01;;;1.01;;
71183;SDS011;58887;51.980;4.464;2024-03-29T09:04:09;1.03;;;1.03;;
71183;SDS011;58887;51.980;4.464;2024-03-29T09:06:38;0.97;;;0.97;;
71183;SDS011;58887;51.980;4.464;2024-03-29T09:09:04;0.87;;;0.87;;
71183;SDS011;58887;51.980;4.464;2024-03-29T09:11:31;1.03;;;1.03;;
71183;SDS011;58887;51.980;4.464;2024-03-29T09:13:56;0.91;;;0.90;;
71183;SDS011;58887;51.980;4.464;2024-03-29T09:16:24;0.92;;;0.92;;
71183;SDS011;58887;51.980;4.464;2024-03-29T09:18:54;0.80;;;0.80;;
71183;SDS011;58887;51.980;4.464;2024-03-29T09:21:20;0.82;;;0.82;;
71183;SDS011;58887;51.980;4.464;2024-03-29T09:23:46;0.88;;;0.88;;
71183;SDS011;58887;51.980;4.464;2024-03-29T09:26:11;0.64;;;0.64;;
71183;SDS011;58887;51.980;4.464;2024-03-29T09:28:39;0.78;;;0.78;;
71183;SDS011;58887;51.980;4.464;2024-03-29T09:31:05;0.76;;;0.76;;
71183;SDS011;58887;51.980;4.464;2024-03-29T09:33:31;0.65;;;0.65;;
71183;SDS011;58887;51.980;4.464;2024-03-29T09:35:56;0.71;;;0.71;;
71183;SDS011;58887;51.980;4.464;2024-03-29T09:38:24;0.71;;;0.71;;
71183;SDS011;58887;51.980;4.464;2024-03-29T09:40:53;0.59;;;0.59;;
71183;SDS011;58887;51.980;4.464;2024-03-29T09:43:25;0.70;;;0.70;;
71183;SDS011;58887;51.980;4.464;2024-03-29T09:45:51;0.72;;;0.72;;
71183;SDS011;58887;51.980;4.464;2024-03-29T09:48:19;0.93;;;0.93;;
71183;SDS011;58887;51.980;4.464;2024-03-29T09:50:48;1.09;;;1.09;;
71183;SDS011;58887;51.980;4.464;2024-03-29T09:53:14;1.05;;;1.05;;
71183;SDS011;58887;51.980;4.464;2024-03-29T09:55:45;1.13;;;1.13;;
71183;SDS011;58887;51.980;4.464;2024-03-29T09:58:12;1.23;;;1.23;;
71183;SDS011;58887;51.980;4.464;2024-03-29T10:00:37;1.24;;;1.24;;
71183;SDS011;58887;51.980;4.464;2024-03-29T10:03:03;1.13;;;1.13;;
71183;SDS011;58887;51.980;4.464;2024-03-29T10:05:32;1.35;;;1.35;;
71183;SDS011;58887;51.980;4.464;2024-03-29T10:07:59;1.25;;;1.25;;
71183;SDS011;58887;51.980;4.464;2024-03-29T10:10:30;1.45;;;1.44;;
71183;SDS011;58887;51.980;4.464;2024-03-29T10:12:57;1.15;;;1.15;;
71183;SDS011;58887;51.980;4.464;2024-03-29T10:15:23;1.51;;;1.50;;
71183;SDS011;58887;51.980;4.464;2024-03-29T10:17:51;1.68;;;1.62;;
71183;SDS011;58887;51.980;4.464;2024-03-29T10:20:18;1.43;;;1.37;;
71183;SDS011;58887;51.980;4.464;2024-03-29T10:22:44;1.50;;;1.47;;
71183;SDS011;58887;51.980;4.464;2024-03-29T10:25:15;1.45;;;1.42;;
71183;SDS011;58887;51.980;4.464;2024-03-29T10:27:41;1.40;;;1.37;;
71183;SDS011;58887;51.980;4.464;2024-03-29T10:30:08;1.46;;;1.45;;
71183;SDS011;58887;51.980;4.464;2024-03-29T10:32:40;1.57;;;1.55;;
71183;SDS011;58887;51.980;4.464;2024-03-29T10:35:06;1.27;;;1.26;;
71183;SDS011;58887;51.980;4.464;2024-03-29T10:37:33;1.12;;;1.11;;
71183;SDS011;58887;51.980;4.464;2024-03-29T10:40:05;1.32;;;1.32;;
71183;SDS011;58887;51.980;4.464;2024-03-29T10:42:36;1.47;;;1.47;;
71183;SDS011;58887;51.980;4.464;2024-03-29T10:45:03;1.19;;;1.19;;
71183;SDS011;58887;51.980;4.464;2024-03-29T10:47:31;1.56;;;1.56;;
71183;SDS011;58887;51.980;4.464;2024-03-29T10:49:58;1.41;;;1.41;;
71183;SDS011;58887;51.980;4.464;2024-03-29T10:52:26;1.42;;;1.42;;
71183;SDS011;58887;51.980;4.464;2024-03-29T10:54:52;1.43;;;1.43;;
71183;SDS011;58887;51.980;4.464;2024-03-29T10:57:23;1.59;;;1.59;;
71183;SDS011;58887;51.980;4.464;2024-03-29T11:02:33;1.94;;;1.94;;
71183;SDS011;58887;51.980;4.464;2024-03-29T11:05:09;1.68;;;1.68;;
71183;SDS011;58887;51.980;4.464;2024-03-29T11:07:39;1.86;;;1.86;;
71183;SDS011;58887;51.980;4.464;2024-03-29T11:10:15;2.03;;;2.03;;
71183;SDS011;58887;51.980;4.464;2024-03-29T11:13:01;2.06;;;2.06;;
71183;SDS011;58887;51.980;4.464;2024-03-29T11:15:36;1.83;;;1.83;;
71183;SDS011;58887;51.980;4.464;2024-03-29T11:18:05;1.73;;;1.73;;
71183;SDS011;58887;51.980;4.464;2024-03-29T11:20:33;1.90;;;1.90;;
71183;SDS011;58887;51.980;4.464;2024-03-29T11:23:11;2.05;;;2.05;;
71183;SDS011;58887;51.980;4.464;2024-03-29T11:25:41;2.28;;;2.28;;
71183;SDS011;58887;51.980;4.464;2024-03-29T11:28:11;2.52;;;2.52;;
71183;SDS011;58887;51.980;4.464;2024-03-29T11:30:46;2.46;;;2.46;;
71183;SDS011;58887;51.980;4.464;2024-03-29T11:33:32;2.32;;;2.32;;
71183;SDS011;58887;51.980;4.464;2024-03-29T11:36:00;2.70;;;2.70;;
71183;SDS011;58887;51.980;4.464;2024-03-29T11:38:35;2.55;;;2.55;;
71183;SDS011;58887;51.980;4.464;2024-03-29T11:41:21;2.48;;;2.48;;
71183;SDS011;58887;51.980;4.464;2024-03-29T11:43:52;2.83;;;2.83;;
71183;SDS011;58887;51.980;4.464;2024-03-29T11:46:21;2.79;;;2.79;;
71183;SDS011;58887;51.980;4.464;2024-03-29T11:48:49;2.96;;;2.96;;
71183;SDS011;58887;51.980;4.464;2024-03-29T11:51:17;3.20;;;3.20;;
71183;SDS011;58887;51.980;4.464;2024-03-29T11:53:46;3.56;;;3.56;;
71183;SDS011;58887;51.980;4.464;2024-03-29T11:56:11;3.90;;;3.90;;
71183;SDS011;58887;51.980;4.464;2024-03-29T11:58:38;3.64;;;3.64;;
71183;SDS011;58887;51.980;4.464;2024-03-29T12:01:07;4.09;;;4.09;;
71183;SDS011;58887;51.980;4.464;2024-03-29T12:03:39;4.41;;;4.41;;
71183;SDS011;58887;51.980;4.464;2024-03-29T12:06:05;4.63;;;4.63;;
71183;SDS011;58887;51.980;4.464;2024-03-29T12:08:32;4.70;;;4.70;;
71183;SDS011;58887;51.980;4.464;2024-03-29T12:10:59;4.66;;;4.66;;
71183;SDS011;58887;51.980;4.464;2024-03-29T12:13:26;5.12;;;5.12;;
71183;SDS011;58887;51.980;4.464;2024-03-29T12:15:53;4.88;;;4.88;;
71183;SDS011;58887;51.980;4.464;2024-03-29T12:18:20;4.30;;;4.30;;
71183;SDS011;58887;51.980;4.464;2024-03-29T12:20:47;4.72;;;4.72;;
71183;SDS011;58887;51.980;4.464;2024-03-29T12:23:15;5.06;;;5.06;;
71183;SDS011;58887;51.980;4.464;2024-03-29T12:25:43;4.76;;;4.76;;
71183;SDS011;58887;51.980;4.464;2024-03-29T12:28:09;4.66;;;4.66;;
71183;SDS011;58887;51.980;4.464;2024-03-29T12:30:35;4.23;;;4.23;;
71183;SDS011;58887;51.980;4.464;2024-03-29T12:33:05;4.36;;;4.36;;
71183;SDS011;58887;51.980;4.464;2024-03-29T12:35:34;4.47;;;4.47;;
71183;SDS011;58887;51.980;4.464;2024-03-29T12:38:00;3.74;;;3.74;;
71183;SDS011;58887;51.980;4.464;2024-03-29T12:40:28;3.15;;;3.15;;
71183;SDS011;58887;51.980;4.464;2024-03-29T12:43:02;3.20;;;3.20;;
71183;SDS011;58887;51.980;4.464;2024-03-29T12:45:32;3.23;;;3.23;;
71183;SDS011;58887;51.980;4.464;2024-03-29T12:47:58;2.93;;;2.93;;
71183;SDS011;58887;51.980;4.464;2024-03-29T12:50:31;2.89;;;2.89;;
71183;SDS011;58887;51.980;4.464;2024-03-29T12:53:02;3.34;;;3.34;;
71183;SDS011;58887;51.980;4.464;2024-03-29T12:55:31;2.77;;;2.77;;
71183;SDS011;58887;51.980;4.464;2024-03-29T12:58:00;2.72;;;2.72;;
71183;SDS011;58887;51.980;4.464;2024-03-29T13:00:33;2.27;;;2.27;;
71183;SDS011;58887;51.980;4.464;2024-03-29T13:02:58;1.75;;;1.75;;
71183;SDS011;58887;51.980;4.464;2024-03-29T13:05:24;1.83;;;1.83;;
71183;SDS011;58887;51.980;4.464;2024-03-29T13:07:50;2.16;;;2.16;;
71183;SDS011;58887;51.980;4.464;2024-03-29T13:10:16;2.01;;;2.01;;
71183;SDS011;58887;51.980;4.464;2024-03-29T13:12:45;1.91;;;1.91;;
71183;SDS011;58887;51.980;4.464;2024-03-29T13:15:27;2.19;;;2.19;;
71183;SDS011;58887;51.980;4.464;2024-03-29T13:17:54;2.19;;;2.19;;
71183;SDS011;58887;51.980;4.464;2024-03-29T13:20:21;2.00;;;2.00;;
71183;SDS011;58887;51.980;4.464;2024-03-29T13:22:48;2.07;;;2.07;;
71183;SDS011;58887;51.980;4.464;2024-03-29T13:25:21;2.50;;;2.50;;
71183;SDS011;58887;51.980;4.464;2024-03-29T13:27:49;2.22;;;2.22;;
71183;SDS011;58887;51.980;4.464;2024-03-29T13:30:23;2.41;;;2.41;;
71183;SDS011;58887;51.980;4.464;2024-03-29T13:32:51;2.11;;;2.11;;
71183;SDS011;58887;51.980;4.464;2024-03-29T13:35:17;1.78;;;1.78;;
71183;SDS011;58887;51.980;4.464;2024-03-29T13:37:47;1.97;;;1.97;;
71183;SDS011;58887;51.980;4.464;2024-03-29T13:40:14;2.10;;;2.10;;
71183;SDS011;58887;51.980;4.464;2024-03-29T13:42:41;2.18;;;2.18;;
71183;SDS011;58887;51.980;4.464;2024-03-29T13:45:07;2.16;;;2.16;;
71183;SDS011;58887;51.980;4.464;2024-03-29T13:47:39;1.92;;;1.92;;
71183;SDS011;58887;51.980;4.464;2024-03-29T13:50:06;1.78;;;1.78;;
71183;SDS011;58887;51.980;4.464;2024-03-29T13:52:33;1.98;;;1.98;;
71183;SDS011;58887;51.980;4.464;2024-03-29T13:54:59;1.65;;;1.65;;
71183;SDS011;58887;51.980;4.464;2024-03-29T13:57:25;1.51;;;1.51;;
71183;SDS011;58887;51.980;4.464;2024-03-29T13:59:51;1.56;;;1.56;;
71183;SDS011;58887;51.980;4.464;2024-03-29T14:02:17;1.60;;;1.60;;
71183;SDS011;58887;51.980;4.464;2024-03-29T14:04:44;1.54;;;1.54;;
71183;SDS011;58887;51.980;4.464;2024-03-29T14:07:11;1.60;;;1.60;;
71183;SDS011;58887;51.980;4.464;2024-03-29T14:09:38;1.47;;;1.47;;
71183;SDS011;58887;51.980;4.464;2024-03-29T14:12:07;1.45;;;1.45;;
71183;SDS011;58887;51.980;4.464;2024-03-29T14:14:33;1.41;;;1.41;;
71183;SDS011;58887;51.980;4.464;2024-03-29T14:16:59;1.49;;;1.49;;
71183;SDS011;58887;51.980;4.464;2024-03-29T14:19:40;1.75;;;1.75;;
71183;SDS011;58887;51.980;4.464;2024-03-29T14:22:06;1.74;;;1.74;;
71183;SDS011;58887;51.980;4.464;2024-03-29T14:24:33;2.00;;;2.00;;
71183;SDS011;58887;51.980;4.464;2024-03-29T14:27:02;1.90;;;1.90;;
71183;SDS011;58887;51.980;4.464;2024-03-29T14:29:29;1.63;;;1.63;;
71183;SDS011;58887;51.980;4.464;2024-03-29T14:31:55;1.53;;;1.53;;
71183;SDS011;58887;51.980;4.464;2024-03-29T14:34:20;1.62;;;1.62;;
71183;SDS011;58887;51.980;4.464;2024-03-29T14:36:47;1.43;;;1.43;;
71183;SDS011;58887;51.980;4.464;2024-03-29T14:39:13;1.35;;;1.35;;
71183;SDS011;58887;51.980;4.464;2024-03-29T14:41:39;1.46;;;1.46;;
71183;SDS011;58887;51.980;4.464;2024-03-29T14:44:08;1.51;;;1.51;;
71183;SDS011;58887;51.980;4.464;2024-03-29T14:46:35;1.36;;;1.36;;
71183;SDS011;58887;51.980;4.464;2024-03-29T14:49:01;1.26;;;1.26;;
71183;SDS011;58887;51.980;4.464;2024-03-29T14:51:35;1.19;;;1.19;;